createdAt,value
2018-06-12T00:00:17.014Z,20.99
2018-06-12T00:02:46.135Z,20.99
2018-06-12T00:05:14.952Z,20.89
2018-06-12T00:07:43.977Z,20.91
2018-06-12T00:10:13.151Z,20.85
2018-06-12T00:12:41.933Z,20.76
2018-06-12T00:15:11.293Z,20.72
2018-06-12T00:17:40.103Z,20.69
2018-06-12T00:20:08.883Z,20.69
2018-06-12T00:22:38.076Z,20.71
2018-06-12T00:25:06.817Z,20.66
2018-06-12T00:27:35.664Z,20.59
2018-06-12T00:30:04.676Z,20.62
2018-06-12T00:32:33.341Z,20.58
2018-06-12T00:35:02.079Z,20.57
2018-06-12T00:37:31.601Z,20.53
2018-06-12T00:40:00.587Z,20.51
2018-06-12T00:42:29.238Z,20.48
2018-06-12T00:44:57.874Z,20.47
2018-06-12T00:47:26.516Z,20.49
2018-06-12T00:49:55.138Z,20.45
2018-06-12T00:52:23.766Z,20.39
2018-06-12T00:54:52.715Z,20.36
2018-06-12T00:57:21.769Z,20.34
2018-06-12T00:59:51.030Z,20.30
2018-06-12T01:02:19.693Z,20.24
2018-06-12T01:04:49.027Z,20.21
2018-06-12T01:07:18.042Z,20.15
2018-06-12T01:09:46.955Z,20.13
2018-06-12T01:12:16.170Z,20.11
2018-06-12T01:14:45.043Z,20.07
2018-06-12T01:17:13.917Z,20.05
2018-06-12T01:19:42.661Z,20.01
2018-06-12T01:22:11.948Z,19.94
2018-06-12T01:24:40.706Z,19.93
2018-06-12T01:27:09.414Z,19.83
2018-06-12T01:29:38.113Z,19.79
2018-06-12T01:32:06.794Z,19.75
2018-06-12T01:34:35.546Z,19.66
2018-06-12T01:37:04.258Z,19.68
2018-06-12T01:39:32.937Z,19.65
2018-06-12T01:42:01.814Z,19.68
2018-06-12T01:44:30.590Z,19.64
2018-06-12T01:46:59.385Z,19.66
2018-06-12T01:49:28.191Z,19.64
2018-06-12T01:51:57.169Z,19.61
2018-06-12T01:54:26.465Z,19.62
2018-06-12T01:56:55.975Z,19.50
2018-06-12T01:59:24.680Z,19.46
2018-06-12T02:01:53.424Z,19.43
2018-06-12T02:04:22.210Z,19.40
2018-06-12T02:06:50.896Z,19.40
2018-06-12T02:15:00.248Z,19.29
2018-06-12T02:17:28.960Z,19.22
2018-06-12T02:19:57.960Z,19.20
2018-06-12T02:22:26.670Z,19.23
2018-06-12T02:24:55.591Z,19.19
2018-06-12T02:27:24.282Z,19.17
2018-06-12T02:29:52.991Z,19.13
2018-06-12T02:32:21.658Z,19.12
2018-06-12T02:34:50.468Z,19.05
2018-06-12T02:37:19.904Z,19.07
2018-06-12T02:39:48.895Z,19.00
2018-06-12T02:42:17.619Z,18.95
2018-06-12T02:44:46.904Z,18.95
2018-06-12T02:47:16.761Z,18.89
2018-06-12T02:49:46.752Z,18.84
2018-06-12T02:52:15.427Z,18.84
2018-06-12T02:54:44.092Z,18.85
2018-06-12T02:57:12.884Z,18.83
2018-06-12T02:59:42.121Z,18.73
2018-06-12T03:02:11.197Z,18.69
2018-06-12T03:04:40.208Z,18.68
2018-06-12T03:07:08.959Z,18.51
2018-06-12T03:09:37.677Z,18.51
2018-06-12T03:12:06.436Z,18.51
2018-06-12T03:14:35.201Z,18.50
2018-06-12T03:17:04.280Z,18.53
2018-06-12T03:19:32.964Z,18.51
2018-06-12T03:22:01.630Z,18.52
2018-06-12T03:24:30.264Z,18.54
2018-06-12T03:26:58.942Z,18.61
2018-06-12T03:29:27.887Z,18.57
2018-06-12T03:31:56.552Z,18.57
2018-06-12T03:34:25.495Z,18.55
2018-06-12T03:36:54.457Z,18.49
2018-06-12T03:39:23.159Z,18.54
2018-06-12T03:41:52.329Z,18.36
2018-06-12T03:44:21.452Z,18.34
2018-06-12T03:46:50.145Z,18.33
2018-06-12T03:49:18.847Z,18.35
2018-06-12T03:51:47.582Z,18.36
2018-06-12T03:54:16.531Z,18.34
2018-06-12T03:56:45.610Z,18.32
2018-06-12T03:59:14.276Z,18.23
2018-06-12T04:01:42.930Z,18.23
2018-06-12T04:04:11.726Z,18.13
2018-06-12T04:06:40.448Z,17.91
2018-06-12T04:09:09.694Z,17.91
2018-06-12T04:11:39.167Z,17.97
2018-06-12T04:14:07.879Z,18.00
2018-06-12T04:16:37.257Z,18.08
2018-06-12T04:19:07.277Z,18.09
2018-06-12T04:21:36.404Z,18.16
2018-06-12T04:24:05.340Z,18.08
2018-06-12T04:26:34.012Z,18.17
2018-06-12T04:29:03.252Z,18.24
2018-06-12T04:31:32.004Z,18.31
2018-06-12T04:34:00.911Z,18.25
2018-06-12T04:36:29.640Z,18.30
2018-06-12T04:38:58.639Z,18.31
2018-06-12T04:41:27.571Z,18.27
2018-06-12T04:43:56.330Z,18.27
2018-06-12T04:46:24.976Z,18.13
2018-06-12T04:48:53.761Z,18.15
2018-06-12T04:51:22.445Z,17.95
2018-06-12T04:53:51.349Z,17.99
2018-06-12T04:56:19.979Z,18.10
2018-06-12T04:58:48.777Z,18.11
2018-06-12T05:01:18.409Z,18.16
2018-06-12T05:03:47.141Z,18.10
2018-06-12T05:06:15.829Z,18.05
2018-06-12T05:08:44.575Z,17.84
2018-06-12T05:11:13.231Z,17.84
2018-06-12T05:13:41.845Z,17.96
2018-06-12T05:16:10.673Z,18.05
2018-06-12T05:18:39.672Z,18.12
2018-06-12T05:21:08.628Z,18.01
2018-06-12T05:23:37.653Z,18.08
2018-06-12T05:26:06.505Z,18.06
2018-06-12T05:28:35.275Z,17.86
2018-06-12T05:31:03.972Z,17.96
2018-06-12T05:33:32.637Z,18.04
2018-06-12T05:36:01.325Z,18.14
2018-06-12T05:38:30.009Z,18.18
2018-06-12T05:40:58.732Z,18.26
2018-06-12T05:43:27.961Z,18.25
2018-06-12T05:45:57.261Z,18.30
2018-06-12T05:48:26.184Z,18.35
2018-06-12T05:50:55.462Z,18.09
2018-06-12T05:53:24.116Z,18.21
2018-06-12T05:55:53.060Z,18.28
2018-06-12T05:58:21.719Z,18.40
2018-06-12T06:00:50.821Z,18.52
2018-06-12T06:03:19.638Z,18.54
2018-06-12T06:05:48.271Z,18.56
2018-06-12T06:08:17.349Z,18.37
2018-06-12T06:10:46.207Z,18.51
2018-06-12T06:13:14.979Z,18.60
2018-06-12T06:15:43.742Z,18.79
2018-06-12T06:18:12.503Z,18.94
2018-06-12T06:20:41.196Z,19.02
2018-06-12T06:23:09.926Z,19.10
2018-06-12T06:25:39.023Z,19.10
2018-06-12T06:28:08.003Z,18.78
2018-06-12T06:30:36.684Z,18.79
2018-06-12T06:33:05.684Z,18.90
2018-06-12T06:35:34.500Z,19.04
2018-06-12T06:38:03.390Z,18.83
2018-06-12T06:40:32.202Z,18.91
2018-06-12T06:43:01.032Z,18.95
2018-06-12T06:45:29.780Z,18.94
2018-06-12T06:47:58.746Z,19.02
2018-06-12T06:50:27.559Z,19.15
2018-06-12T06:52:56.525Z,19.28
2018-06-12T06:55:25.282Z,19.42
2018-06-12T06:57:53.967Z,19.37
2018-06-12T07:00:23.000Z,19.47
2018-06-12T07:02:51.657Z,19.37
2018-06-12T07:05:20.733Z,19.16
2018-06-12T07:07:49.844Z,18.33
2018-06-12T07:10:18.900Z,18.50
2018-06-12T07:12:49.244Z,18.61
2018-06-12T07:15:19.890Z,18.76
2018-06-12T07:17:48.920Z,19.05
2018-06-12T07:21:28.543Z,19.30
2018-06-12T07:23:57.434Z,19.35
2018-06-12T07:26:26.144Z,19.61
2018-06-12T07:28:54.838Z,19.84
2018-06-12T07:31:23.594Z,20.40
2018-06-12T07:33:52.664Z,20.45
2018-06-12T07:36:21.757Z,20.31
2018-06-12T07:38:50.451Z,20.42
2018-06-12T07:41:19.976Z,20.69
2018-06-12T07:43:48.627Z,20.63
2018-06-12T07:46:17.299Z,20.45
2018-06-12T07:48:46.238Z,20.38
2018-06-12T07:51:14.855Z,20.52
2018-06-12T07:53:43.503Z,20.28
2018-06-12T07:56:12.181Z,20.51
2018-06-12T07:58:46.240Z,20.78
2018-06-12T08:01:16.723Z,20.88
2018-06-12T08:03:45.473Z,20.28
2018-06-12T08:06:14.777Z,20.15
2018-06-12T08:08:47.522Z,20.11
2018-06-12T08:11:22.021Z,19.96
2018-06-12T08:13:52.780Z,20.08
2018-06-12T08:16:21.749Z,20.56
2018-06-12T08:18:51.398Z,21.25
2018-06-12T08:21:21.913Z,21.64
2018-06-12T08:23:50.933Z,22.45
2018-06-12T08:26:22.417Z,22.81
2018-06-12T08:28:52.266Z,22.95
2018-06-12T08:31:20.967Z,23.42
2018-06-12T08:33:50.813Z,22.62
2018-06-12T08:36:20.052Z,21.96
2018-06-12T08:38:51.064Z,22.06
2018-06-12T08:41:19.979Z,21.74
2018-06-12T08:43:49.652Z,21.62
2018-06-12T08:46:20.776Z,21.73
2018-06-12T08:48:49.655Z,21.65
2018-06-12T08:51:18.621Z,22.04
2018-06-12T08:53:47.313Z,21.20
2018-06-12T08:56:16.891Z,19.26
2018-06-12T08:58:45.601Z,18.50
2018-06-12T09:01:16.190Z,19.31
2018-06-12T09:03:44.961Z,19.55
2018-06-12T09:06:17.749Z,19.55
2018-06-12T09:08:47.367Z,20.07
2018-06-12T09:11:17.758Z,20.50
2018-06-12T09:13:46.521Z,19.46
2018-06-12T09:16:15.703Z,19.85
2018-06-12T09:18:44.545Z,19.80
2018-06-12T09:21:13.631Z,20.01
2018-06-12T09:23:42.805Z,19.78
2018-06-12T09:26:11.643Z,19.72
2018-06-12T09:28:40.883Z,19.92
2018-06-12T09:31:09.788Z,19.85
2018-06-12T09:33:38.520Z,19.78
2018-06-12T09:36:12.685Z,19.31
2018-06-12T09:38:41.574Z,19.69
2018-06-12T09:41:12.193Z,19.45
2018-06-12T09:43:41.202Z,19.68
2018-06-12T09:46:10.075Z,20.05
2018-06-12T09:48:39.200Z,20.55
2018-06-12T09:51:08.599Z,20.56
2018-06-12T09:53:37.702Z,20.51
2018-06-12T09:56:08.906Z,20.10
2018-06-12T09:58:38.855Z,19.11
2018-06-12T10:01:13.833Z,19.53
2018-06-12T10:03:43.419Z,20.00
2018-06-12T10:06:12.879Z,20.32
2018-06-12T10:08:42.611Z,20.81
2018-06-12T10:11:11.369Z,21.02
2018-06-12T10:13:40.111Z,21.28
2018-06-12T10:16:11.026Z,20.78
2018-06-12T10:18:41.385Z,20.85
2018-06-12T10:21:10.201Z,21.22
2018-06-12T10:23:39.860Z,21.48
2018-06-12T10:26:08.564Z,21.24
2018-06-12T10:28:37.329Z,21.58
2018-06-12T10:31:07.151Z,21.11
2018-06-12T10:33:38.007Z,21.21
2018-06-12T10:36:07.001Z,21.46
2018-06-12T10:38:35.830Z,21.01
2018-06-12T10:41:05.189Z,21.41
2018-06-12T10:43:34.100Z,21.91
2018-06-12T10:46:02.852Z,21.73
2018-06-12T10:48:32.149Z,21.50
2018-06-12T10:51:01.009Z,21.33
2018-06-12T10:53:30.150Z,21.54
2018-06-12T10:56:00.053Z,21.84
2018-06-12T10:58:29.051Z,22.33
2018-06-12T11:01:03.592Z,22.61
2018-06-12T11:03:32.663Z,22.00
2018-06-12T11:06:01.642Z,22.08
2018-06-12T11:08:30.475Z,21.73
2018-06-12T11:10:59.597Z,21.50
2018-06-12T11:13:28.780Z,21.52
2018-06-12T11:15:58.148Z,21.69
2018-06-12T11:18:28.113Z,21.42
2018-06-12T11:20:58.391Z,21.71
2018-06-12T11:23:27.493Z,21.40
2018-06-12T11:25:56.693Z,22.09
2018-06-12T11:28:25.796Z,22.20
2018-06-12T11:30:55.484Z,22.66
2018-06-12T11:33:24.290Z,23.36
2018-06-12T11:35:53.796Z,22.91
2018-06-12T11:38:23.066Z,23.32
2018-06-12T11:40:52.199Z,23.82
2018-06-12T11:43:21.429Z,25.19
2018-06-12T11:45:50.443Z,24.24
2018-06-12T11:48:20.644Z,22.98
2018-06-12T11:50:49.471Z,23.53
2018-06-12T11:53:19.690Z,23.07
2018-06-12T11:55:49.679Z,23.31
2018-06-12T11:58:21.187Z,23.22
2018-06-12T12:00:50.688Z,25.09
2018-06-12T12:03:20.189Z,27.28
2018-06-12T12:05:51.004Z,28.19
2018-06-12T12:08:22.168Z,27.70
2018-06-12T12:10:51.551Z,27.94
2018-06-12T12:13:20.917Z,26.96
2018-06-12T12:15:50.814Z,25.93
2018-06-12T12:18:22.589Z,25.14
2018-06-12T12:20:51.898Z,26.70
2018-06-12T12:23:29.288Z,29.95
2018-06-12T12:25:58.962Z,32.77
2018-06-12T12:28:28.399Z,33.63
2018-06-12T12:30:58.647Z,34.34
2018-06-12T12:33:30.450Z,35.79
2018-06-12T12:36:03.831Z,36.99
2018-06-12T12:38:35.550Z,35.23
2018-06-12T12:41:05.016Z,34.46
2018-06-12T12:43:36.979Z,35.12
2018-06-12T12:46:10.534Z,34.48
2018-06-12T12:48:40.557Z,35.21
2018-06-12T12:51:11.639Z,36.83
2018-06-12T12:53:41.213Z,37.53
2018-06-12T12:56:11.646Z,37.29
2018-06-12T12:58:42.676Z,37.97
2018-06-12T13:01:13.785Z,39.47
2018-06-12T13:03:43.393Z,39.21
2018-06-12T13:06:14.123Z,39.41
2018-06-12T13:08:43.251Z,38.95
2018-06-12T13:11:12.360Z,38.83
2018-06-12T13:13:43.380Z,38.62
2018-06-12T13:16:14.032Z,38.32
2018-06-12T13:18:44.373Z,37.14
2018-06-12T13:21:14.149Z,37.84
2018-06-12T13:23:43.457Z,35.97
2018-06-12T13:26:12.128Z,34.45
2018-06-12T13:28:41.883Z,35.94
2018-06-12T13:31:11.137Z,36.45
2018-06-12T13:33:40.231Z,37.29
2018-06-12T13:36:10.240Z,38.66
2018-06-12T13:38:39.986Z,37.52
2018-06-12T13:41:10.879Z,36.90
2018-06-12T13:43:39.726Z,34.29
2018-06-12T13:46:09.384Z,33.76
2018-06-12T13:48:38.216Z,31.63
2018-06-12T13:51:07.938Z,32.05
2018-06-12T13:53:37.548Z,32.68
2018-06-12T13:56:10.204Z,31.92
2018-06-12T13:58:41.019Z,33.19
2018-06-12T14:01:10.365Z,32.64
2018-06-12T14:03:39.669Z,31.42
2018-06-12T14:06:09.151Z,33.11
2018-06-12T14:08:39.682Z,33.40
2018-06-12T14:11:09.099Z,31.12
2018-06-12T14:13:38.358Z,28.86
2018-06-12T14:16:07.806Z,29.64
2018-06-12T14:18:37.430Z,29.53
2018-06-12T14:21:07.845Z,28.31
2018-06-12T14:23:38.277Z,28.49
2018-06-12T14:26:07.755Z,29.15
2018-06-12T14:28:36.923Z,28.61
2018-06-12T14:31:07.278Z,28.06
2018-06-12T14:33:37.112Z,27.29
2018-06-12T14:36:06.684Z,27.02
2018-06-12T14:38:36.399Z,25.83
2018-06-12T14:41:05.148Z,25.72
2018-06-12T14:43:35.308Z,26.40
2018-06-12T14:46:04.773Z,26.49
2018-06-12T14:48:36.040Z,25.47
2018-06-12T14:51:05.577Z,24.22
2018-06-12T14:53:34.732Z,24.30
2018-06-12T14:56:04.680Z,24.43
2018-06-12T14:58:34.738Z,24.27
2018-06-12T15:01:07.150Z,24.56
2018-06-12T15:03:36.577Z,24.72
2018-06-12T15:06:06.741Z,24.88
2018-06-12T15:08:37.460Z,24.62
2018-06-12T15:11:10.521Z,24.66
2018-06-12T15:13:40.337Z,24.69
2018-06-12T15:16:09.626Z,24.27
2018-06-12T15:18:39.650Z,24.33
2018-06-12T15:21:09.172Z,24.58
2018-06-12T15:23:38.016Z,24.73
2018-06-12T15:26:07.178Z,24.62
2018-06-12T15:28:36.414Z,24.75
2018-06-12T15:31:05.126Z,24.26
2018-06-12T15:33:34.690Z,24.16
2018-06-12T15:36:03.802Z,23.99
2018-06-12T15:38:34.479Z,23.77
2018-06-12T15:41:03.971Z,23.73
2018-06-12T15:43:32.888Z,23.99
2018-06-12T15:46:01.657Z,23.86
2018-06-12T15:48:30.408Z,23.75
2018-06-12T15:51:00.283Z,23.83
2018-06-12T15:53:29.548Z,23.53
2018-06-12T15:55:59.792Z,23.52
2018-06-12T15:58:28.566Z,23.52
2018-06-12T16:01:02.795Z,23.49
2018-06-12T16:03:38.122Z,23.55
2018-06-12T16:06:08.017Z,23.74
2018-06-12T16:08:36.870Z,23.78
2018-06-12T16:11:06.901Z,23.66
2018-06-12T16:13:37.168Z,23.03
2018-06-12T16:16:07.125Z,23.17
2018-06-12T16:18:36.020Z,23.25
2018-06-12T16:21:05.210Z,22.95
2018-06-12T16:23:34.709Z,22.83
2018-06-12T16:26:05.074Z,22.48
2018-06-12T16:28:34.554Z,22.19
2018-06-12T16:31:03.619Z,22.16
2018-06-12T16:33:33.165Z,22.15
2018-06-12T16:36:03.019Z,22.16
2018-06-12T16:38:32.219Z,22.25
2018-06-12T16:41:02.895Z,22.24
2018-06-12T16:43:34.534Z,22.40
2018-06-12T16:46:04.632Z,22.65
2018-06-12T16:48:34.537Z,22.72
2018-06-12T16:51:05.339Z,22.66
2018-06-12T16:53:34.957Z,22.47
2018-06-12T16:56:05.280Z,22.22
2018-06-12T16:58:34.654Z,22.17
2018-06-12T17:01:03.481Z,22.21
2018-06-12T17:03:34.236Z,22.27
2018-06-12T17:06:11.582Z,22.40
2018-06-12T17:08:40.640Z,22.35
2018-06-12T17:11:09.335Z,22.41
2018-06-12T17:13:39.547Z,22.45
2018-06-12T17:16:09.177Z,22.45
2018-06-12T17:18:39.978Z,22.54
2018-06-12T17:21:10.057Z,22.48
2018-06-12T17:23:38.845Z,22.55
2018-06-12T17:26:10.093Z,22.50
2018-06-12T17:28:46.547Z,22.51
2018-06-12T17:31:19.349Z,22.47
2018-06-12T17:33:52.016Z,22.46
2018-06-12T17:36:22.332Z,22.41
2018-06-12T17:38:51.690Z,22.49
2018-06-12T17:41:24.181Z,22.50
2018-06-12T17:43:54.399Z,22.49
2018-06-12T17:46:24.976Z,22.48
2018-06-12T17:48:55.574Z,22.48
2018-06-12T17:51:29.653Z,22.45
2018-06-12T17:54:02.853Z,22.43
2018-06-12T17:56:39.431Z,22.42
2018-06-12T17:59:08.173Z,22.32
2018-06-12T18:01:39.429Z,22.36
2018-06-12T18:04:08.867Z,22.34
2018-06-12T18:06:38.727Z,22.23
2018-06-12T18:09:08.539Z,22.23
2018-06-12T18:11:38.597Z,22.05
2018-06-12T18:14:07.305Z,21.97
2018-06-12T18:16:36.196Z,22.08
2018-06-12T18:19:06.094Z,22.12
2018-06-12T18:21:34.749Z,22.12
2018-06-12T18:24:03.428Z,22.12
2018-06-12T18:26:34.040Z,22.06
2018-06-12T18:29:03.427Z,21.84
2018-06-12T18:31:33.032Z,21.82
2018-06-12T18:34:02.197Z,21.84
2018-06-12T18:36:32.351Z,21.78
2018-06-12T18:39:01.786Z,21.69
2018-06-12T18:41:31.096Z,21.49
2018-06-12T18:44:00.870Z,21.34
2018-06-12T18:46:30.750Z,21.23
2018-06-12T18:49:02.431Z,21.13
2018-06-12T18:51:32.119Z,21.05
2018-06-12T18:54:06.116Z,21.01
2018-06-12T18:56:35.711Z,21.00
2018-06-12T18:59:04.954Z,20.94
2018-06-12T19:01:37.216Z,20.91
2018-06-12T19:04:06.261Z,20.82
2018-06-12T19:06:35.785Z,20.77
2018-06-12T19:09:07.675Z,20.71
2018-06-12T19:11:37.528Z,20.65
2018-06-12T19:14:06.837Z,20.54
2018-06-12T19:16:43.285Z,20.52
2018-06-12T19:19:13.237Z,20.51
2018-06-12T19:21:43.083Z,20.49
2018-06-12T19:24:11.937Z,20.50
2018-06-12T19:26:42.039Z,20.45
2018-06-12T19:29:12.653Z,20.43
2018-06-12T19:31:44.715Z,20.44
2018-06-12T19:34:13.433Z,20.44
2018-06-12T19:36:42.515Z,20.42
2018-06-12T19:39:12.835Z,20.41
2018-06-12T19:41:41.996Z,20.37
2018-06-12T19:44:11.671Z,20.37
2018-06-12T19:46:41.635Z,20.36
2018-06-12T19:49:11.502Z,20.31
2018-06-12T19:51:41.419Z,20.28
2018-06-12T19:54:10.175Z,20.29
2018-06-12T19:56:38.924Z,20.25
2018-06-12T19:59:07.894Z,20.26
2018-06-12T20:01:37.250Z,20.23
2018-06-12T20:04:06.655Z,20.20
2018-06-12T20:06:35.486Z,20.11
2018-06-12T20:09:07.046Z,20.10
2018-06-12T20:11:35.821Z,20.10
2018-06-12T20:14:05.476Z,20.08
2018-06-12T20:16:35.069Z,20.09
2018-06-12T20:19:04.101Z,20.06
2018-06-12T20:21:32.922Z,20.06
2018-06-12T20:24:02.950Z,19.97
2018-06-12T20:26:32.096Z,19.94
2018-06-12T20:29:01.370Z,19.96
2018-06-12T20:31:30.702Z,19.97
2018-06-12T20:34:00.259Z,19.94
2018-06-12T20:36:30.831Z,19.93
2018-06-12T20:39:00.640Z,19.93
2018-06-12T20:41:29.494Z,19.90
2018-06-12T20:43:58.828Z,19.88
2018-06-12T20:46:27.652Z,19.87
2018-06-12T20:48:57.693Z,19.85
2018-06-12T20:51:27.462Z,19.81
2018-06-12T20:53:56.495Z,19.76
2018-06-12T20:56:25.736Z,19.77
2018-06-12T20:58:54.860Z,19.76
2018-06-12T21:01:24.476Z,19.76
2018-06-12T21:03:55.124Z,19.77
2018-06-12T21:06:27.846Z,19.80
2018-06-12T21:08:57.830Z,19.82
2018-06-12T21:11:27.327Z,19.82
2018-06-12T21:13:57.084Z,19.71
2018-06-12T21:16:26.833Z,19.72
2018-06-12T21:18:56.254Z,19.75
2018-06-12T21:21:26.962Z,19.76
2018-06-12T21:23:56.116Z,19.71
2018-06-12T21:26:26.580Z,19.71
2018-06-12T21:28:56.429Z,19.69
2018-06-12T21:31:26.805Z,19.72
2018-06-12T21:33:56.406Z,19.68
2018-06-12T21:36:26.538Z,19.65
2018-06-12T21:38:56.602Z,19.62
2018-06-12T21:41:27.087Z,19.60
2018-06-12T21:43:56.959Z,19.58
2018-06-12T21:46:27.452Z,19.60
2018-06-12T21:48:56.228Z,19.57
2018-06-12T21:51:26.253Z,19.55
2018-06-12T21:53:54.952Z,19.50
2018-06-12T21:56:24.090Z,19.52
2018-06-12T21:58:53.601Z,19.54
2018-06-12T22:01:22.458Z,19.55
2018-06-12T22:03:52.630Z,19.58
2018-06-12T22:06:22.680Z,19.53
2018-06-12T22:08:52.536Z,19.49
2018-06-12T22:11:22.544Z,19.51
2018-06-12T22:13:51.169Z,19.50
2018-06-12T22:16:24.099Z,19.51
2018-06-12T22:18:53.414Z,19.48
2018-06-12T22:21:24.094Z,19.52
2018-06-12T22:23:54.443Z,19.48
2018-06-12T22:26:23.150Z,19.50
2018-06-12T22:28:52.560Z,19.43
2018-06-12T22:31:23.560Z,19.38
2018-06-12T22:33:52.986Z,19.38
2018-06-12T22:36:23.324Z,19.37
2018-06-12T22:38:52.315Z,19.32
2018-06-12T22:41:21.900Z,19.35
2018-06-12T22:43:50.755Z,19.37
2018-06-12T22:46:20.414Z,19.35
2018-06-12T22:48:49.995Z,19.39
2018-06-12T22:51:20.811Z,19.38
2018-06-12T22:53:50.576Z,19.32
2018-06-12T22:56:20.065Z,19.32
2018-06-12T22:58:48.726Z,19.28
2018-06-12T23:01:17.666Z,19.29
2018-06-12T23:03:47.854Z,19.28
2018-06-12T23:06:17.274Z,19.25
2018-06-12T23:08:46.850Z,19.27
2018-06-12T23:11:15.537Z,19.24
2018-06-12T23:13:44.757Z,19.11
2018-06-12T23:16:13.778Z,19.02
2018-06-12T23:18:44.191Z,19.04
2018-06-12T23:21:24.070Z,19.08
2018-06-12T23:23:53.576Z,19.10
2018-06-12T23:26:22.294Z,19.13
2018-06-12T23:28:51.974Z,19.13
2018-06-12T23:31:21.581Z,19.14
2018-06-12T23:33:50.931Z,19.13
2018-06-12T23:36:20.079Z,19.11
2018-06-12T23:38:50.526Z,19.15
2018-06-12T23:41:20.046Z,19.13
2018-06-12T23:43:50.182Z,19.17
2018-06-12T23:46:20.554Z,19.17
2018-06-12T23:48:49.571Z,19.15
2018-06-12T23:51:19.890Z,19.10
2018-06-12T23:53:49.306Z,19.07
2018-06-12T23:56:18.898Z,19.04
2018-06-12T23:58:50.292Z,19.04
